Time;durP1;ratioP1;P1;durP2;ratioP2;P2;SDS_P1;SDS_P2;PMS_P1;PMS_P2;Temp;Humidity;BMP_temperature;BMP_pressure;BME280_temperature;BME280_humidity;BME280_pressure;Samples;Min_cycle;Max_cycle;Signal;HPM_P1;HPM_P2
2023/01/05 00:01:32;;;;;;;24.98;4.03;;;;;;;8.57;99.00;100871.34;5046064;28;20057;-51
2023/01/05 00:03:59;;;;;;;19.25;3.67;;;;;;;8.54;99.36;100883.03;5047534;28;20072;-47
2023/01/05 00:06:25;;;;;;;21.42;5.13;;;;;;;8.53;99.28;100878.63;5047344;28;20878;-51
2023/01/05 00:08:52;;;;;;;16.92;3.08;;;;;;;8.52;99.50;100877.03;5047526;28;20041;-47
2023/01/05 00:22:46;;;;;;;19.23;3.95;;;;;;;8.66;99.90;100877.63;5047876;28;20124;-49
2023/01/05 00:25:22;;;;;;;17.20;3.33;;;;;;;8.69;99.98;100865.13;5046461;28;20132;-57
2023/01/05 00:27:50;;;;;;;38.05;6.97;;;;;;;8.72;100.00;100876.31;5047534;28;20398;-48
2023/01/05 00:30:20;;;;;;;20.10;3.70;;;;;;;8.74;100.00;100873.22;5046722;28;20517;-47
2023/01/05 00:32:47;;;;;;;11.35;3.42;;;;;;;8.76;100.00;100869.03;5034802;28;20048;-48
2023/01/05 00:35:14;;;;;;;15.82;3.85;;;;;;;8.76;100.00;100877.28;5053746;28;20439;-47
2023/01/05 00:37:42;;;;;;;13.80;2.95;;;;;;;8.73;100.00;100872.44;5040363;28;20419;-52
2023/01/05 00:40:11;;;;;;;14.50;3.03;;;;;;;8.71;100.00;100877.44;5041082;28;20625;-48
2023/01/05 00:42:38;;;;;;;15.88;3.30;;;;;;;8.69;100.00;100878.91;5047215;28;20514;-50
2023/01/05 00:45:07;;;;;;;13.35;3.20;;;;;;;8.68;100.00;100883.66;5047526;28;20056;-48
2023/01/05 00:47:33;;;;;;;14.93;4.13;;;;;;;8.68;100.00;100888.34;5047146;28;20063;-47
2023/01/05 00:50:00;;;;;;;18.55;2.92;;;;;;;8.69;100.00;100888.00;5046192;28;20419;-49
2023/01/05 00:52:27;;;;;;;11.55;2.50;;;;;;;8.70;100.00;100892.41;5047278;28;20060;-47
2023/01/05 00:54:53;;;;;;;10.88;2.70;;;;;;;8.70;100.00;100895.16;5046229;28;20064;-47
2023/01/05 00:57:20;;;;;;;23.52;3.67;;;;;;;8.72;100.00;100895.63;5047684;28;20507;-47
2023/01/05 00:59:47;;;;;;;12.60;3.28;;;;;;;8.72;100.00;100898.41;5046157;28;20281;-47
2023/01/05 01:02:14;;;;;;;13.13;2.80;;;;;;;8.73;100.00;100899.22;5046623;28;20055;-48
2023/01/05 01:04:41;;;;;;;12.77;2.47;;;;;;;8.72;100.00;100890.13;5046959;28;21780;-48
2023/01/05 01:07:08;;;;;;;5.55;1.50;;;;;;;8.72;100.00;100898.41;5047316;28;20045;-47
2023/01/05 01:09:36;;;;;;;16.95;3.38;;;;;;;8.71;100.00;100902.28;5042977;28;20037;-46
2023/01/05 01:12:03;;;;;;;7.95;2.45;;;;;;;8.69;100.00;100887.19;5036996;28;20103;-51
2023/01/05 01:14:29;;;;;;;13.43;2.80;;;;;;;8.66;100.00;100877.63;5043635;28;20167;-46
2023/01/05 01:16:56;;;;;;;9.00;2.65;;;;;;;8.62;100.00;100887.72;5055835;28;20048;-48
2023/01/05 01:19:24;;;;;;;10.82;3.45;;;;;;;8.63;100.00;100888.53;5048847;28;20052;-52
2023/01/05 01:21:51;;;;;;;8.98;1.40;;;;;;;8.63;100.00;100889.31;5046918;28;20061;-52
2023/01/05 01:24:25;;;;;;;8.75;1.52;;;;;;;8.63;100.00;100889.31;5046311;28;20513;-47
2023/01/05 01:26:53;;;;;;;6.05;1.58;;;;;;;8.63;100.00;100894.84;5046866;28;20052;-50
2023/01/05 01:29:20;;;;;;;8.07;1.08;;;;;;;8.64;100.00;100890.13;5044880;28;20071;-46
2023/01/05 01:31:49;;;;;;;3.92;1.08;;;;;;;8.64;100.00;100896.47;5046667;28;20044;-54
2023/01/05 01:34:16;;;;;;;3.55;1.35;;;;;;;8.64;100.00;100895.66;5051627;28;20045;-46
2023/01/05 01:36:43;;;;;;;6.03;1.38;;;;;;;8.61;100.00;100885.28;5046387;28;20059;-50
2023/01/05 01:39:11;;;;;;;5.82;1.15;;;;;;;8.59;100.00;100891.13;5045690;28;20064;-48
2023/01/05 01:41:38;;;;;;;14.95;4.18;;;;;;;8.56;100.00;100894.53;5044311;28;20052;-46
2023/01/05 01:44:42;;;;;;;12.00;2.42;;;;;;;8.53;100.00;100876.69;5046295;28;20376;-46
2023/01/05 01:47:15;;;;;;;12.40;1.92;;;;;;;8.49;100.00;100885.97;5032435;28;20047;-50
2023/01/05 01:49:43;;;;;;;12.32;2.28;;;;;;;8.47;100.00;100891.00;5045467;28;20353;-48
2023/01/05 01:52:10;;;;;;;19.90;3.10;;;;;;;8.44;100.00;100894.41;5033269;28;20037;-47
2023/01/05 01:54:37;;;;;;;20.52;3.42;;;;;;;8.42;100.00;100889.22;5046302;28;20049;-53
2023/01/05 01:57:05;;;;;;;15.30;2.70;;;;;;;8.40;100.00;100896.19;5046340;28;20045;-48
2023/01/05 01:59:31;;;;;;;23.65;5.70;;;;;;;8.39;100.00;100898.13;5044979;28;20053;-49
2023/01/05 02:02:00;;;;;;;13.13;2.20;;;;;;;8.37;100.00;100891.31;5045339;28;20053;-47
2023/01/05 02:04:30;;;;;;;13.57;2.72;;;;;;;8.36;100.00;100889.72;5046352;28;20588;-47
2023/01/05 02:06:58;;;;;;;15.52;2.38;;;;;;;8.35;100.00;100890.84;5046466;28;20041;-49
2023/01/05 02:09:25;;;;;;;11.00;3.30;;;;;;;8.37;100.00;100888.56;5045109;28;20045;-47
2023/01/05 02:12:09;;;;;;;11.07;3.33;;;;;;;8.38;100.00;100901.22;5046148;28;20048;-47
2023/01/05 02:14:52;;;;;;;23.17;3.20;;;;;;;8.38;100.00;100887.44;5046183;28;20590;-46
2023/01/05 02:17:25;;;;;;;11.40;2.67;;;;;;;8.35;100.00;100883.38;5060047;28;20051;-46
2023/01/05 02:20:09;;;;;;;15.73;3.72;;;;;;;8.34;100.00;100884.50;5037119;28;20037;-48
2023/01/05 02:23:01;;;;;;;12.93;2.90;;;;;;;8.36;100.00;100885.03;5049691;28;20037;-53
2023/01/05 02:25:40;;;;;;;20.98;3.65;;;;;;;8.38;100.00;100881.91;5049985;28;20604;-49
2023/01/05 02:28:25;;;;;;;15.88;4.25;;;;;;;8.42;100.00;100885.63;5048580;28;20067;-51
2023/01/05 02:31:12;;;;;;;16.35;3.97;;;;;;;8.44;100.00;100886.16;5049090;28;20041;-49
2023/01/05 02:34:13;;;;;;;19.60;3.65;;;;;;;8.47;100.00;100885.50;5055991;28;20044;-48
2023/01/05 02:37:00;;;;;;;21.88;3.50;;;;;;;8.47;100.00;100886.28;5049188;28;20041;-47
2023/01/05 02:39:33;;;;;;;21.13;3.08;;;;;;;8.49;100.00;100880.44;5048657;28;20041;-46
2023/01/05 02:42:09;;;;;;;20.10;3.40;;;;;;;8.50;100.00;100879.28;5049619;28;20605;-46
2023/01/05 02:44:36;;;;;;;20.05;3.20;;;;;;;8.51;100.00;100883.69;5049793;28;20049;-48
2023/01/05 02:47:04;;;;;;;17.40;2.85;;;;;;;8.52;100.00;100883.34;5049578;28;20037;-48
2023/01/05 02:49:37;;;;;;;12.32;2.55;;;;;;;8.53;100.00;100875.88;5049204;28;20059;-47
2023/01/05 02:52:05;;;;;;;;;;;;;;;8.53;100.00;100875.88;5050016;28;20044;-47
2023/01/05 02:54:42;;;;;;;13.25;3.22;;;;;;;8.52;100.00;100877.03;5048605;28;19921;-47
2023/01/05 02:57:15;;;;;;;13.25;3.05;;;;;;;8.53;100.00;100873.13;5049459;28;20103;-54
2023/01/05 02:59:52;;;;;;;22.65;3.85;;;;;;;8.55;100.00;100870.88;5048498;28;20053;-49
2023/01/05 03:02:26;;;;;;;31.20;4.45;;;;;;;8.57;100.00;100871.34;5121588;22;20062;-53
2023/01/05 03:05:17;;;;;;;9.35;2.33;;;;;;;8.59;100.00;100849.75;5049233;28;20390;-47
2023/01/05 03:07:46;;;;;;;18.73;3.83;;;;;;;8.61;100.00;100847.44;5049102;28;20049;-46
2023/01/05 03:15:57;;;;;;;17.13;3.30;;;;;;;8.69;100.00;100854.09;5048982;28;20512;-47
2023/01/05 03:18:25;;;;;;;16.42;2.78;;;;;;;8.70;100.00;100834.44;5034626;28;20041;-45
2023/01/05 03:20:54;;;;;;;19.33;4.88;;;;;;;8.72;100.00;100837.69;5044512;28;20398;-48
2023/01/05 03:37:54;;;;;;;23.23;4.17;;;;;;;8.63;100.00;100822.31;5048983;28;20057;-53
2023/01/05 03:40:26;;;;;;;20.23;3.50;;;;;;;8.61;100.00;100824.56;5047888;28;20383;-46
2023/01/05 03:42:53;;;;;;;26.70;3.35;;;;;;;8.59;100.00;100816.63;5048497;28;20048;-46
2023/01/05 03:45:21;;;;;;;15.35;3.20;;;;;;;8.55;100.00;100815.69;5047429;28;20052;-46
2023/01/05 03:47:49;;;;;;;29.10;7.00;;;;;;;8.55;100.00;100810.16;5048557;28;20071;-46
2023/01/05 03:50:15;;;;;;;20.40;3.40;;;;;;;8.56;100.00;100801.53;5046823;28;20055;-48
2023/01/05 03:52:42;;;;;;;23.58;3.92;;;;;;;8.57;100.00;100796.84;5046930;28;20124;-46
2023/01/05 03:55:09;;;;;;;23.58;3.40;;;;;;;8.60;100.00;100790.66;5046589;28;20394;-52
2023/01/05 03:57:36;;;;;;;20.35;4.40;;;;;;;8.61;100.00;100778.47;5048352;28;20349;-46
2023/01/05 04:00:04;;;;;;;26.77;3.78;;;;;;;8.63;100.00;100776.16;5047776;28;20049;-46
2023/01/05 04:02:31;;;;;;;27.85;4.05;;;;;;;8.66;100.00;100783.00;5046177;28;20099;-46
2023/01/05 04:04:58;;;;;;;24.13;5.75;;;;;;;8.67;100.00;100774.38;5048099;28;20096;-46
2023/01/05 04:07:24;;;;;;;20.60;4.03;;;;;;;8.69;100.00;100760.25;5048073;28;20049;-51
2023/01/05 04:09:52;;;;;;;20.65;3.80;;;;;;;8.69;100.00;100766.56;5045425;28;20061;-53
2023/01/05 04:12:19;;;;;;;22.95;4.18;;;;;;;8.72;100.00;100765.09;5040909;28;20079;-47
2023/01/05 04:14:45;;;;;;;17.58;4.10;;;;;;;8.72;100.00;100754.06;5063076;28;20045;-53
2023/01/05 04:17:12;;;;;;;20.95;4.38;;;;;;;8.72;100.00;100754.88;5058460;28;20533;-46
2023/01/05 04:19:39;;;;;;;33.88;5.32;;;;;;;8.74;100.00;100749.81;5046888;28;20045;-46
2023/01/05 04:22:05;;;;;;;27.25;4.78;;;;;;;8.73;100.00;100745.47;5046705;28;20485;-46
2023/01/05 04:24:32;;;;;;;35.20;6.32;;;;;;;8.75;100.00;100745.94;5047601;28;20048;-48
2023/01/05 04:26:59;;;;;;;24.05;5.68;;;;;;;8.76;100.00;100747.56;5047910;28;20056;-46
2023/01/05 04:29:27;;;;;;;26.38;5.15;;;;;;;8.77;100.00;100748.34;5047568;28;20056;-45
2023/01/05 04:31:54;;;;;;;22.80;4.45;;;;;;;8.78;100.00;100753.56;5046382;28;20049;-47
2023/01/05 04:34:21;;;;;;;33.80;5.90;;;;;;;8.80;100.00;100759.53;5052833;28;20053;-46
2023/01/05 04:36:48;;;;;;;20.02;4.32;;;;;;;8.80;100.00;100740.22;5046526;28;20465;-47
2023/01/05 04:39:15;;;;;;;38.72;5.47;;;;;;;8.82;100.00;100737.94;5047551;28;20380;-47
2023/01/05 04:41:41;;;;;;;25.77;4.93;;;;;;;8.84;100.00;100746.69;5046259;28;20049;-47
2023/01/05 04:44:08;;;;;;;27.85;4.38;;;;;;;8.86;100.00;100749.94;5047315;28;20395;-46
2023/01/05 04:46:35;;;;;;;21.15;4.13;;;;;;;8.87;100.00;100731.44;5047504;28;20053;-46
2023/01/05 04:49:02;;;;;;;23.73;4.00;;;;;;;8.87;100.00;100732.22;5045660;28;20041;-52
2023/01/05 04:51:28;;;;;;;16.65;3.72;;;;;;;8.88;100.00;100731.06;5046883;28;20045;-46
2023/01/05 04:53:55;;;;;;;22.50;5.57;;;;;;;8.89;100.00;100734.66;5046279;28;20036;-50
2023/01/05 04:56:22;;;;;;;18.73;3.95;;;;;;;8.88;100.00;100731.06;5045552;28;20049;-47
2023/01/05 04:58:48;;;;;;;17.88;3.75;;;;;;;8.89;100.00;100729.94;5046296;28;20116;-50
2023/01/05 05:01:15;;;;;;;18.50;3.78;;;;;;;8.92;100.00;100737.53;5046987;28;20045;-47
2023/01/05 05:03:42;;;;;;;19.02;4.28;;;;;;;8.93;100.00;100733.66;5046005;28;20103;-53
2023/01/05 05:06:09;;;;;;;20.02;3.13;;;;;;;8.93;100.00;100733.66;5046926;28;20384;-46
2023/01/05 05:08:38;;;;;;;14.98;3.38;;;;;;;8.95;100.00;100728.59;5046180;28;20048;-50
2023/01/05 05:11:05;;;;;;;14.90;3.08;;;;;;;8.94;100.00;100718.72;5044633;28;20187;-46
2023/01/05 05:13:32;;;;;;;13.85;2.83;;;;;;;8.94;100.00;100715.94;5047154;28;20048;-46
2023/01/05 05:15:59;;;;;;;10.23;2.40;;;;;;;8.95;100.00;100709.25;5047653;28;20394;-46
2023/01/05 05:18:25;;;;;;;11.35;2.60;;;;;;;8.96;100.00;100705.38;5056606;28;20049;-51
2023/01/05 05:20:52;;;;;;;11.80;2.88;;;;;;;8.96;100.00;100701.78;5045799;28;20490;-47
2023/01/05 05:23:19;;;;;;;9.98;2.25;;;;;;;8.95;100.00;100689.94;5046836;28;20063;-46
2023/01/05 05:25:49;;;;;;;19.05;3.33;;;;;;;8.96;100.00;100694.31;5046652;28;20041;-46
2023/01/05 05:28:16;;;;;;;12.18;2.10;;;;;;;8.98;100.00;100692.03;5046530;28;20044;-49
2023/01/05 05:30:43;;;;;;;7.90;2.15;;;;;;;8.99;100.00;100688.13;5045954;28;20045;-46
2023/01/05 05:33:09;;;;;;;18.52;2.38;;;;;;;9.00;100.00;100691.72;5050395;28;20052;-46
2023/01/05 05:35:38;;;;;;;12.13;3.00;;;;;;;8.99;100.00;100685.38;5049007;28;20056;-50
2023/01/05 05:38:04;;;;;;;15.60;3.25;;;;;;;9.00;100.00;100695.25;5047087;28;20053;-47
2023/01/05 05:40:31;;;;;;;12.95;2.90;;;;;;;8.98;100.00;100682.94;5045752;28;20512;-47
2023/01/05 05:42:58;;;;;;;19.92;2.58;;;;;;;8.96;100.00;100677.75;5045877;28;20055;-47
2023/01/05 05:45:24;;;;;;;18.55;3.40;;;;;;;8.96;100.00;100677.75;5037223;28;20142;-54
2023/01/05 05:47:52;;;;;;;10.35;2.50;;;;;;;8.94;100.00;100666.25;5047272;28;20136;-47
2023/01/05 05:50:19;;;;;;;11.52;2.10;;;;;;;8.93;100.00;100659.09;5045872;28;20044;-47
2023/01/05 05:52:46;;;;;;;21.80;4.75;;;;;;;8.92;100.00;100664.97;5049650;28;20517;-46
2023/01/05 05:55:12;;;;;;;16.02;2.45;;;;;;;8.91;100.00;100658.63;5050809;28;20060;-49
2023/01/05 05:57:39;;;;;;;14.57;3.35;;;;;;;8.90;100.00;100645.16;5050713;28;20048;-46
2023/01/05 06:00:06;;;;;;;10.35;2.72;;;;;;;8.89;100.00;100649.88;5048547;28;20052;-46
2023/01/05 06:02:33;;;;;;;13.32;2.90;;;;;;;8.86;100.00;100645.03;5050444;28;20130;-47
2023/01/05 06:04:59;;;;;;;20.90;3.35;;;;;;;8.86;100.00;100650.56;5050651;28;20090;-45
2023/01/05 06:07:26;;;;;;;14.88;4.28;;;;;;;8.86;100.00;100656.06;5050366;28;20048;-46
2023/01/05 06:09:53;;;;;;;22.02;4.20;;;;;;;8.85;100.00;100648.94;5049208;28;20047;-51
2023/01/05 06:12:19;;;;;;;8.43;2.33;;;;;;;8.84;100.00;100641.00;5050428;28;20426;-47
2023/01/05 06:14:46;;;;;;;16.52;2.70;;;;;;;8.85;100.00;100640.63;5050624;28;20110;-46
2023/01/05 06:17:13;;;;;;;12.65;2.63;;;;;;;8.86;100.00;100645.03;5053704;28;20099;-46
2023/01/05 06:19:40;;;;;;;14.65;2.83;;;;;;;8.85;100.00;100637.88;5049386;28;20060;-46
2023/01/05 06:22:06;;;;;;;20.75;3.33;;;;;;;8.84;100.00;100636.25;5050099;28;20514;-48
2023/01/05 06:24:33;;;;;;;19.88;4.82;;;;;;;8.84;100.00;100636.25;5047430;28;20502;-47
2023/01/05 06:26:59;;;;;;;15.45;2.58;;;;;;;8.85;100.00;100632.34;5050075;28;20414;-46
2023/01/05 06:29:26;;;;;;;8.50;2.13;;;;;;;8.86;100.00;100633.16;5048887;28;20060;-46
2023/01/05 06:31:53;;;;;;;21.13;4.55;;;;;;;8.86;100.00;100639.50;5049934;28;20076;-47
2023/01/05 06:34:19;;;;;;;11.48;2.70;;;;;;;8.87;100.00;100624.53;5054606;28;20033;-47
2023/01/05 06:36:48;;;;;;;14.18;2.80;;;;;;;8.87;100.00;100619.03;5049465;28;20049;-47
2023/01/05 06:39:14;;;;;;;17.30;2.42;;;;;;;8.90;100.00;100615.59;5049158;28;20442;-49
2023/01/05 06:41:41;;;;;;;11.45;3.72;;;;;;;8.90;100.00;100609.25;5040240;28;20080;-45
2023/01/05 06:44:08;;;;;;;8.35;2.03;;;;;;;8.89;100.00;100600.19;5049905;28;20045;-45
2023/01/05 06:46:35;;;;;;;10.05;2.03;;;;;;;8.91;100.00;100608.94;5049558;28;20064;-46
2023/01/05 06:49:01;;;;;;;9.82;1.80;;;;;;;8.91;100.00;100600.66;5049659;28;20271;-45
2023/01/05 06:51:28;;;;;;;7.70;1.52;;;;;;;8.93;100.00;100609.41;5047392;28;20402;-46
2023/01/05 06:53:54;;;;;;;4.45;1.42;;;;;;;8.96;100.00;100602.41;5049719;28;20057;-46
2023/01/05 06:56:21;;;;;;;9.32;1.85;;;;;;;9.00;100.00;100598.59;5048013;28;20060;-46
2023/01/05 06:58:48;;;;;;;4.80;1.23;;;;;;;9.09;100.00;100601.31;5049313;28;20541;-45
2023/01/05 07:01:15;;;;;;;5.47;1.55;;;;;;;9.17;100.00;100597.66;5048411;28;20068;-46
2023/01/05 07:03:41;;;;;;;3.03;1.00;;;;;;;9.23;100.00;100603.78;5049420;28;20494;-48
2023/01/05 07:06:10;;;;;;;4.10;1.10;;;;;;;9.26;100.00;100592.88;5049563;28;20123;-54
2023/01/05 07:08:40;;;;;;;6.00;1.65;;;;;;;9.28;100.00;100587.00;5048388;28;20059;-46
2023/01/05 07:11:07;;;;;;;6.50;1.08;;;;;;;9.31;100.00;100584.38;5047110;28;20107;-47
2023/01/05 07:13:34;;;;;;;3.85;1.20;;;;;;;9.33;100.00;100584.00;5047653;28;20156;-47
2023/01/05 07:16:01;;;;;;;8.43;1.40;;;;;;;9.34;100.00;100582.88;5050373;28;20497;-45
2023/01/05 07:18:27;;;;;;;6.40;1.40;;;;;;;9.34;100.00;100582.88;5058441;28;20549;-53
2023/01/05 07:20:54;;;;;;;6.53;1.23;;;;;;;9.36;100.00;100569.53;5047814;28;20533;-47
2023/01/05 07:23:21;;;;;;;4.93;1.00;;;;;;;9.37;100.00;100573.91;5048856;28;20080;-46
2023/01/05 07:25:47;;;;;;;4.18;1.05;;;;;;;9.34;100.00;100572.63;5045255;28;20059;-46
2023/01/05 07:28:14;;;;;;;8.65;1.70;;;;;;;9.35;100.00;100567.91;5049011;28;20059;-47
2023/01/05 07:30:41;;;;;;;13.45;1.42;;;;;;;9.35;100.00;100568.72;5047293;28;20486;-46
2023/01/05 07:33:07;;;;;;;8.55;1.35;;;;;;;9.36;100.00;100567.56;5051228;28;20061;-45
2023/01/05 07:35:34;;;;;;;5.90;1.27;;;;;;;9.38;100.00;100569.97;5050683;28;20438;-45
2023/01/05 07:38:02;;;;;;;6.45;1.10;;;;;;;9.40;100.00;100564.94;5048978;28;20455;-48
2023/01/05 07:40:28;;;;;;;6.40;1.50;;;;;;;9.41;100.00;100567.34;5047807;28;20045;-46
2023/01/05 07:42:55;;;;;;;8.27;1.40;;;;;;;9.42;100.00;100568.16;5047759;28;20491;-46
2023/01/05 07:45:22;;;;;;;5.80;2.15;;;;;;;9.43;100.00;100558.72;5048514;28;20120;-47
2023/01/05 07:47:49;;;;;;;5.78;1.38;;;;;;;9.46;100.00;100564.38;5048729;28;20059;-50
2023/01/05 07:50:15;;;;;;;6.30;1.52;;;;;;;9.47;100.00;100566.00;5047416;28;20253;-51
2023/01/05 07:52:42;;;;;;;6.55;1.80;;;;;;;9.49;100.00;100563.69;5048386;28;20164;-47
2023/01/05 07:55:09;;;;;;;5.63;1.38;;;;;;;9.53;100.00;100558.28;5048104;28;20053;-49
2023/01/05 07:57:35;;;;;;;6.63;1.33;;;;;;;9.54;100.00;100552.41;5048697;28;20052;-49
2023/01/05 08:00:04;;;;;;;6.13;1.30;;;;;;;9.55;100.00;100558.75;5046519;28;20506;-48
2023/01/05 08:02:31;;;;;;;6.72;2.10;;;;;;;9.57;100.00;100548.16;5047606;28;20056;-49
2023/01/05 08:05:02;;;;;;;6.93;1.85;;;;;;;9.60;100.00;100544.72;5048043;28;20097;-50
2023/01/05 08:07:28;;;;;;;7.55;1.60;;;;;;;9.64;100.00;100542.84;5048135;28;20057;-51
2023/01/05 08:15:26;;;;;;;6.97;1.50;;;;;;;9.70;100.00;100535.97;5047583;28;20049;-47
2023/01/05 08:17:53;;;;;;;11.80;4.28;;;;;;;9.71;100.00;100537.59;5057656;28;20056;-47
2023/01/05 08:20:20;;;;;;;8.13;1.65;;;;;;;9.74;100.00;100542.44;5045077;28;20360;-48
2023/01/05 08:22:50;;;;;;;12.88;1.73;;;;;;;9.76;100.00;100534.59;5048407;28;20053;-56
2023/01/05 08:25:18;;;;;;;11.88;1.85;;;;;;;9.77;100.00;100544.47;5047259;28;20059;-51
2023/01/05 08:27:45;;;;;;;18.35;6.05;;;;;;;9.80;100.00;100549.31;5049839;28;20048;-46
2023/01/05 08:30:13;;;;;;;11.32;2.70;;;;;;;9.82;100.00;100539.53;5049155;28;20041;-47
2023/01/05 08:32:40;;;;;;;15.35;2.83;;;;;;;9.85;100.00;100540.00;5048674;28;20045;-53
2023/01/05 08:38:33;;;;;;;10.77;3.78;;;;;;;9.92;100.00;100529.16;5041560;28;20057;-48
2023/01/05 08:41:00;;;;;;;16.50;2.45;;;;;;;9.95;100.00;100523.75;5049874;28;20059;-49
2023/01/05 08:43:27;;;;;;;10.45;1.98;;;;;;;10.00;100.00;100526.28;5048553;28;20056;-47
2023/01/05 08:45:53;;;;;;;8.98;2.13;;;;;;;10.01;100.00;100529.84;5048450;28;20044;-47
2023/01/05 08:48:20;;;;;;;8.52;2.17;;;;;;;10.02;100.00;100521.22;5049489;28;20127;-53
2023/01/05 08:50:47;;;;;;;10.50;2.67;;;;;;;10.04;100.00;100507.03;5041641;28;20548;-47
2023/01/05 08:53:14;;;;;;;9.50;2.00;;;;;;;10.04;100.00;100518.91;5028616;28;20403;-50
2023/01/05 08:55:40;;;;;;;17.80;3.63;;;;;;;10.06;100.00;100508.28;5043287;28;20406;-54
2023/01/05 08:58:07;;;;;;;13.90;3.15;;;;;;;10.07;100.00;100515.44;5049291;28;20056;-49
2023/01/05 09:00:34;;;;;;;10.82;2.35;;;;;;;10.09;100.00;100515.09;5048165;28;20045;-47
2023/01/05 09:03:01;;;;;;;13.73;2.90;;;;;;;10.13;100.00;100522.41;5048516;28;20045;-49
2023/01/05 09:05:28;;;;;;;16.70;3.78;;;;;;;10.17;100.00;100519.72;5049367;28;20103;-47
2023/01/05 09:07:55;;;;;;;12.23;3.00;;;;;;;10.21;100.00;100523.41;5039561;28;20060;-48
2023/01/05 09:10:21;;;;;;;12.07;2.85;;;;;;;10.24;100.00;100515.25;5044495;28;20563;-48
2023/01/05 09:12:48;;;;;;;13.73;2.03;;;;;;;10.26;100.00;100512.94;5035020;28;20103;-49
2023/01/05 09:15:15;;;;;;;7.63;2.33;;;;;;;10.29;100.00;100500.34;5049457;28;20060;-52
2023/01/05 09:17:42;;;;;;;9.68;1.70;;;;;;;10.31;100.00;100507.16;5064225;28;20055;-50
2023/01/05 09:20:09;;;;;;;6.05;1.50;;;;;;;10.34;100.00;100500.91;5069248;28;20048;-48
2023/01/05 09:22:36;;;;;;;9.02;2.00;;;;;;;10.38;100.00;100493.50;5068980;28;20055;-48
2023/01/05 09:25:03;;;;;;;7.75;1.55;;;;;;;10.41;100.00;100494.78;5050280;28;20037;-47
2023/01/05 09:27:30;;;;;;;15.27;3.42;;;;;;;10.44;100.00;100499.63;5048035;28;20041;-49
2023/01/05 09:29:57;;;;;;;11.27;2.10;;;;;;;10.44;100.00;100477.47;5049060;28;20060;-47
2023/01/05 09:32:24;;;;;;;10.57;2.70;;;;;;;10.49;100.00;100498.56;5048885;28;20403;-49
2023/01/05 09:34:50;;;;;;;9.57;2.22;;;;;;;10.50;100.00;100484.38;5065180;28;20101;-47
2023/01/05 09:37:17;;;;;;;9.02;1.98;;;;;;;10.53;100.00;100480.09;5068833;28;20048;-48
2023/01/05 09:39:44;;;;;;;16.65;3.28;;;;;;;10.56;100.00;100460.84;5059488;28;20561;-55
2023/01/05 09:42:18;;;;;;;8.73;2.00;;;;;;;10.60;100.00;100463.69;5046697;28;20549;-52
2023/01/05 09:44:49;;;;;;;11.13;2.05;;;;;;;10.60;100.00;100463.69;5048693;28;20080;-47
2023/01/05 09:47:40;;;;;;;15.93;1.88;;;;;;;10.61;100.00;100463.34;5048999;28;20041;-48
2023/01/05 09:50:16;;;;;;;9.73;1.92;;;;;;;10.62;100.00;100464.13;5048618;28;20068;-51
2023/01/05 09:52:43;;;;;;;7.55;1.50;;;;;;;10.64;100.00;100454.34;5049129;28;20093;-51
2023/01/05 09:55:18;;;;;;;7.00;1.58;;;;;;;10.67;100.00;100447.31;5047557;28;20061;-48
2023/01/05 09:57:53;;;;;;;9.75;2.05;;;;;;;10.69;100.00;100434.72;5048757;28;20056;-54
2023/01/05 10:00:22;;;;;;;6.68;2.17;;;;;;;10.70;100.00;100421.66;5028752;28;20495;-47
2023/01/05 10:02:54;;;;;;;11.40;1.85;;;;;;;10.71;100.00;100431.59;5028545;28;20053;-47
2023/01/05 10:05:22;;;;;;;9.95;2.38;;;;;;;10.71;100.00;100437.13;5031523;28;20522;-45
2023/01/05 10:08:31;;;;;;;12.45;2.25;;;;;;;10.72;100.00;100430.44;5044655;28;20487;-47
2023/01/05 10:14:15;;;;;;;7.13;1.92;;;;;;;10.72;100.00;100411.06;5047186;28;20479;-46
2023/01/05 10:16:43;;;;;;;9.27;2.13;;;;;;;10.68;100.00;100413.72;5045998;28;20052;-48
2023/01/05 10:19:17;;;;;;;10.93;1.77;;;;;;;10.67;100.00;100403.78;5048027;28;20033;-49
2023/01/05 10:22:04;;;;;;;5.72;1.10;;;;;;;10.67;100.00;100406.56;5048116;28;20077;-54
2023/01/05 10:24:36;;;;;;;7.38;2.40;;;;;;;10.72;100.00;100411.06;5047940;28;20055;-47
2023/01/05 10:27:23;;;;;;;10.07;3.72;;;;;;;10.75;100.00;100400.06;5047962;28;20064;-55
2023/01/05 10:30:22;;;;;;;5.25;1.00;;;;;;;10.79;100.00;100403.75;5048623;28;20045;-48
2023/01/05 10:32:59;;;;;;;9.75;1.15;;;;;;;10.80;99.94;100396.25;5047016;28;20355;-49
2023/01/05 10:36:24;;;;;;;10.15;3.17;;;;;;;10.83;99.82;100387.19;5047292;28;20138;-49
2023/01/05 10:39:21;;;;;;;15.98;2.50;;;;;;;10.84;99.73;100386.03;5051302;28;20072;-52
2023/01/05 10:41:50;;;;;;;10.90;1.98;;;;;;;10.85;99.55;100380.16;5034073;28;20497;-47
2023/01/05 10:44:20;;;;;;;9.55;2.70;;;;;;;10.89;99.19;100372.75;5051777;28;20055;-55
2023/01/05 10:46:47;;;;;;;4.38;1.27;;;;;;;10.91;99.33;100375.97;5050495;28;20048;-47
2023/01/05 10:49:24;;;;;;;6.15;1.20;;;;;;;10.94;99.09;100368.91;5050399;28;20098;-48
2023/01/05 10:51:51;;;;;;;7.40;1.70;;;;;;;10.96;98.92;100361.06;5051478;28;20082;-48
2023/01/05 10:54:36;;;;;;;9.60;1.65;;;;;;;10.99;98.71;100365.84;5051906;28;20049;-47
2023/01/05 10:57:28;;;;;;;4.05;1.00;;;;;;;11.01;98.46;100358.03;5049407;28;20052;-50
2023/01/05 11:00:12;;;;;;;10.73;2.17;;;;;;;11.02;98.35;100354.88;5051463;28;20045;-47
2023/01/05 11:02:58;;;;;;;7.40;1.20;;;;;;;11.06;98.11;100365.25;5051215;28;20060;-47
2023/01/05 11:05:27;;;;;;;6.05;1.10;;;;;;;11.08;97.88;100357.38;5051284;28;20048;-47
2023/01/05 11:07:57;;;;;;;6.47;1.13;;;;;;;11.12;97.72;100353.53;5042364;28;20562;-47
2023/01/05 11:10:30;;;;;;;8.65;1.55;;;;;;;11.13;97.44;100355.16;5050387;28;20049;-47
2023/01/05 11:13:17;;;;;;;2.90;1.23;;;;;;;11.18;97.18;100351.28;5051004;28;20534;-47
2023/01/05 11:16:11;;;;;;;4.35;1.33;;;;;;;11.23;97.09;100337.97;5050599;28;20041;-46
2023/01/05 11:18:47;;;;;;;7.75;1.10;;;;;;;11.27;96.71;100338.88;5050389;28;20504;-46
2023/01/05 11:21:18;;;;;;;5.07;1.05;;;;;;;11.29;96.60;100330.19;5048301;28;20525;-48
2023/01/05 11:23:50;;;;;;;3.55;0.90;;;;;;;11.31;96.48;100328.66;5050398;28;20076;-47
2023/01/05 11:26:16;;;;;;;6.65;1.23;;;;;;;11.31;96.45;100323.13;5051028;28;20037;-46
2023/01/05 11:29:00;;;;;;;7.68;1.77;;;;;;;11.34;96.18;100322.41;5050560;28;20041;-45
2023/01/05 11:32:04;;;;;;;6.43;2.17;;;;;;;11.38;95.99;100303.09;5050621;28;20044;-49
2023/01/05 11:34:46;;;;;;;3.83;1.23;;;;;;;11.40;95.79;100304.34;5061597;28;20036;-48
2023/01/05 11:37:23;;;;;;;6.55;1.00;;;;;;;11.41;95.54;100275.44;5051099;28;20063;-47
2023/01/05 11:39:56;;;;;;;9.13;1.10;;;;;;;11.42;95.46;100277.06;5049983;28;20048;-53
2023/01/05 11:42:22;;;;;;;6.10;1.27;;;;;;;11.43;95.00;100283.41;5044964;28;20095;-51
2023/01/05 11:44:59;;;;;;;7.15;2.05;;;;;;;11.45;94.87;100270.78;5050571;28;20483;-46
2023/01/05 11:47:49;;;;;;;5.28;0.70;;;;;;;11.47;94.86;100271.22;5048951;28;20045;-47
2023/01/05 11:50:26;;;;;;;7.13;0.90;;;;;;;11.49;94.79;100254.25;5049729;28;20048;-53
2023/01/05 11:52:56;;;;;;;10.77;1.20;;;;;;;11.49;94.76;100252.25;5039128;28;20048;-55
2023/01/05 11:55:36;;;;;;;5.60;1.02;;;;;;;11.52;94.48;100237.66;5050397;28;20116;-51
2023/01/05 11:58:24;;;;;;;3.70;0.68;;;;;;;11.54;94.19;100238.09;5050398;28;20477;-48
2023/01/05 12:01:22;;;;;;;8.82;1.40;;;;;;;11.55;94.29;100234.19;5038127;28;20040;-47
2023/01/05 12:04:00;;;;;;;4.22;1.63;;;;;;;11.56;94.29;100226.66;5049531;28;20040;-53
2023/01/05 12:06:47;;;;;;;7.88;1.20;;;;;;;11.55;94.28;100234.19;5050580;28;20119;-49
2023/01/05 12:09:33;;;;;;;3.65;1.02;;;;;;;11.56;94.12;100213.63;5019683;28;20052;-48
2023/01/05 12:12:13;;;;;;;6.28;1.60;;;;;;;11.56;94.24;100210.84;5050014;28;20049;-54
2023/01/05 12:14:45;;;;;;;6.78;2.05;;;;;;;11.57;94.02;100198.56;5042080;28;20523;-49
2023/01/05 12:17:13;;;;;;;6.38;1.08;;;;;;;11.57;93.72;100195.78;5053186;28;20418;-47
2023/01/05 12:20:00;;;;;;;6.00;2.13;;;;;;;11.60;93.40;100185.94;5049634;28;20048;-47